createdAt,value
2023-02-12T00:01:27.157Z,7.89
2023-02-12T00:03:54.557Z,7.89
2023-02-12T00:06:21.389Z,7.89
2023-02-12T00:08:54.537Z,7.89
2023-02-12T00:11:25.983Z,7.92
2023-02-12T00:13:54.339Z,7.90
2023-02-12T00:16:26.327Z,7.88
2023-02-12T00:18:56.424Z,7.87
2023-02-12T00:21:23.999Z,7.87
2023-02-12T00:23:50.944Z,7.88
2023-02-12T00:26:21.166Z,7.91
2023-02-12T00:28:50.946Z,7.92
2023-02-12T00:31:25.823Z,7.92
2023-02-12T00:33:53.471Z,7.91
2023-02-12T00:36:24.626Z,7.91
2023-02-12T00:38:54.229Z,7.87
2023-02-12T00:41:23.462Z,7.86
2023-02-12T00:43:50.978Z,7.85
2023-02-12T00:46:18.453Z,7.86
2023-02-12T00:48:45.583Z,7.89
2023-02-12T00:51:12.543Z,7.89
2023-02-12T00:53:39.419Z,7.92
2023-02-12T00:56:08.092Z,7.95
2023-02-12T00:58:35.442Z,7.95
2023-02-12T01:01:02.312Z,7.95
2023-02-12T01:03:29.148Z,7.96
2023-02-12T01:05:57.700Z,7.95
2023-02-12T01:08:25.098Z,7.96
2023-02-12T01:11:02.635Z,7.95
2023-02-12T01:13:32.290Z,7.92
2023-02-12T01:16:18.809Z,7.90
2023-02-12T01:18:46.508Z,7.91
2023-02-12T01:21:20.422Z,7.91
2023-02-12T01:23:48.061Z,7.88
2023-02-12T01:26:17.986Z,7.88
2023-02-12T01:28:50.916Z,7.86
2023-02-12T01:31:22.464Z,7.87
2023-02-12T01:33:54.068Z,7.85
2023-02-12T01:36:22.327Z,7.84
2023-02-12T01:38:50.173Z,7.83
2023-02-12T01:41:24.516Z,7.86
2023-02-12T01:44:15.523Z,7.83
2023-02-12T01:46:45.185Z,7.79
2023-02-12T01:49:33.224Z,7.80
2023-02-12T01:52:28.646Z,7.80
2023-02-12T01:55:02.798Z,7.82
2023-02-12T01:57:34.530Z,7.78
2023-02-12T02:00:09.301Z,7.71
2023-02-12T02:02:45.062Z,7.68
2023-02-12T02:05:23.356Z,7.65
2023-02-12T02:07:50.438Z,7.61
2023-02-12T02:10:17.536Z,7.58
2023-02-12T02:13:02.832Z,7.56
2023-02-12T02:15:32.516Z,7.60
2023-02-12T02:18:27.393Z,7.65
2023-02-12T02:21:34.527Z,7.68
2023-02-12T02:24:56.692Z,7.63
2023-02-12T02:27:36.055Z,7.62
2023-02-12T02:30:24.781Z,7.63
2023-02-12T02:33:21.881Z,7.66
2023-02-12T02:36:13.088Z,7.67
2023-02-12T02:38:50.832Z,7.61
2023-02-12T02:42:06.941Z,7.58
2023-02-12T02:44:50.759Z,7.58
2023-02-12T02:47:24.112Z,7.57
2023-02-12T02:49:58.954Z,7.60
2023-02-12T02:52:39.061Z,7.64
2023-02-12T02:55:11.445Z,7.70
2023-02-12T02:57:57.114Z,7.79
2023-02-12T03:00:38.820Z,7.80
2023-02-12T03:03:33.532Z,7.82
2023-02-12T03:06:09.708Z,7.78
2023-02-12T03:08:50.108Z,7.72
2023-02-12T03:11:27.189Z,7.69
2023-02-12T03:14:13.297Z,7.69
2023-02-12T03:17:13.026Z,7.67
2023-02-12T03:19:51.828Z,7.63
2023-02-12T03:22:33.195Z,7.64
2023-02-12T03:25:14.733Z,7.62
2023-02-12T03:27:52.970Z,7.63
2023-02-12T03:30:21.950Z,7.59
2023-02-12T03:33:04.508Z,7.57
2023-02-12T03:35:57.710Z,7.54
2023-02-12T03:38:39.840Z,7.54
2023-02-12T03:41:15.127Z,7.49
2023-02-12T03:43:50.981Z,7.45
2023-02-12T03:46:32.566Z,7.41
2023-02-12T03:49:10.047Z,7.41
2023-02-12T03:51:42.650Z,7.43
2023-02-12T03:54:16.191Z,7.40
2023-02-12T03:56:52.248Z,7.43
2023-02-12T03:59:22.128Z,7.47
2023-02-12T04:01:54.202Z,7.47
2023-02-12T04:04:23.034Z,7.48
2023-02-12T04:06:52.509Z,7.50
2023-02-12T04:09:21.905Z,7.48
2023-02-12T04:12:14.542Z,7.47
2023-02-12T04:14:54.951Z,7.45
2023-02-12T04:17:36.434Z,7.47
2023-02-12T04:20:12.969Z,7.48
2023-02-12T04:23:04.012Z,7.51
2023-02-12T04:25:58.458Z,7.54
2023-02-12T04:28:52.044Z,7.55
2023-02-12T04:32:09.321Z,7.57
2023-02-12T04:34:53.243Z,7.60
2023-02-12T04:37:30.261Z,7.60
2023-02-12T04:40:00.601Z,7.58
2023-02-12T04:42:27.467Z,7.58
2023-02-12T04:44:54.478Z,7.55
2023-02-12T04:47:21.265Z,7.50
2023-02-12T04:49:48.067Z,7.48
2023-02-12T04:52:14.972Z,7.48
2023-02-12T04:54:41.839Z,7.46
2023-02-12T04:57:09.414Z,7.42
2023-02-12T04:59:36.232Z,7.38
2023-02-12T05:02:03.146Z,7.35
2023-02-12T05:04:30.036Z,7.32
2023-02-12T05:06:56.837Z,7.31
2023-02-12T05:09:23.673Z,7.33
2023-02-12T05:11:50.497Z,7.37
2023-02-12T05:14:17.319Z,7.43
2023-02-12T05:16:44.145Z,7.44
2023-02-12T05:19:11.104Z,7.45
2023-02-12T05:21:38.588Z,7.49
2023-02-12T05:24:06.051Z,7.53
2023-02-12T05:26:33.036Z,7.54
2023-02-12T05:28:59.855Z,7.57
2023-02-12T05:31:27.390Z,7.52
2023-02-12T05:33:54.564Z,7.46
2023-02-12T05:36:24.422Z,7.47
2023-02-12T05:38:53.281Z,7.53
2023-02-12T05:41:24.829Z,7.56
2023-02-12T05:43:52.863Z,7.57
2023-02-12T05:46:21.999Z,7.55
2023-02-12T05:48:49.434Z,7.48
2023-02-12T05:51:22.101Z,7.40
2023-02-12T05:53:51.851Z,7.33
2023-02-12T05:56:26.007Z,7.32
2023-02-12T05:59:02.213Z,7.31
2023-02-12T06:01:42.364Z,7.30
2023-02-12T06:04:16.700Z,7.29
2023-02-12T06:06:44.285Z,7.29
2023-02-12T06:09:13.470Z,7.27
2023-02-12T06:11:40.888Z,7.27
2023-02-12T06:14:13.032Z,7.29
2023-02-12T06:16:40.398Z,7.36
2023-02-12T06:19:07.728Z,7.42
2023-02-12T06:21:34.690Z,7.42
2023-02-12T06:24:01.962Z,7.41
2023-02-12T06:26:29.160Z,7.33
2023-02-12T06:28:55.981Z,7.25
2023-02-12T06:31:33.118Z,7.21
2023-02-12T06:34:04.839Z,7.21
2023-02-12T06:36:32.390Z,7.17
2023-02-12T06:39:02.734Z,7.17
2023-02-12T06:41:29.649Z,7.22
2023-02-12T06:43:56.471Z,7.29
2023-02-12T06:46:23.544Z,7.36
2023-02-12T06:48:55.482Z,7.41
2023-02-12T06:51:23.598Z,7.48
2023-02-12T06:53:52.977Z,7.48
2023-02-12T06:56:22.365Z,7.48
2023-02-12T06:58:58.338Z,7.46
2023-02-12T07:01:29.407Z,7.47
2023-02-12T07:04:02.870Z,7.51
2023-02-12T07:06:33.374Z,7.55
2023-02-12T07:09:00.476Z,7.56
2023-02-12T07:11:36.160Z,7.61
2023-02-12T07:14:05.166Z,7.61
2023-02-12T07:16:32.296Z,7.59
2023-02-12T07:18:59.227Z,7.61
2023-02-12T07:21:26.114Z,7.63
2023-02-12T07:23:54.198Z,7.67
2023-02-12T07:26:22.290Z,7.68
2023-02-12T07:28:52.794Z,7.63
2023-02-12T07:31:23.228Z,7.65
2023-02-12T07:33:56.095Z,7.63
2023-02-12T07:36:24.577Z,7.58
2023-02-12T07:38:52.006Z,7.59
2023-02-12T07:41:31.374Z,7.56
2023-02-12T07:44:03.751Z,7.56
2023-02-12T07:46:35.235Z,7.59
2023-02-12T07:49:07.023Z,7.64
2023-02-12T07:51:35.508Z,7.69
2023-02-12T07:54:03.663Z,7.71
2023-02-12T07:56:35.423Z,7.72
2023-02-12T07:59:06.690Z,7.76
2023-02-12T08:01:38.022Z,7.79
2023-02-12T08:04:15.437Z,7.81
2023-02-12T08:06:46.852Z,7.84
2023-02-12T08:09:19.442Z,7.87
2023-02-12T08:11:46.390Z,7.90
2023-02-12T08:14:16.788Z,7.92
2023-02-12T08:16:45.741Z,7.97
2023-02-12T08:19:20.906Z,8.00
2023-02-12T08:21:54.957Z,8.03
2023-02-12T08:24:22.446Z,8.03
2023-02-12T08:26:50.268Z,8.03
2023-02-12T08:29:21.460Z,8.00
2023-02-12T08:31:51.110Z,8.02
2023-02-12T08:34:49.385Z,8.08
2023-02-12T08:37:16.186Z,8.14
2023-02-12T08:39:43.228Z,8.17
2023-02-12T08:42:10.386Z,8.21
2023-02-12T08:44:37.279Z,8.25
2023-02-12T08:47:05.956Z,8.25
2023-02-12T08:49:32.786Z,8.31
2023-02-12T08:52:01.892Z,8.31
2023-02-12T08:54:31.515Z,8.34
2023-02-12T08:57:02.057Z,8.36
2023-02-12T08:59:29.708Z,8.39
2023-02-12T09:01:56.771Z,8.43
2023-02-12T09:04:28.592Z,8.48
2023-02-12T09:06:55.979Z,8.46
2023-02-12T09:09:23.392Z,8.48
2023-02-12T09:11:50.800Z,8.50
2023-02-12T09:14:23.587Z,8.54
2023-02-12T09:16:53.091Z,8.58
2023-02-12T09:19:20.739Z,8.57
2023-02-12T09:21:56.466Z,8.55
2023-02-12T09:24:27.675Z,8.57
2023-02-12T09:26:54.978Z,8.59
2023-02-12T09:29:22.444Z,8.58
2023-02-12T09:31:49.577Z,8.59
2023-02-12T09:34:16.727Z,8.58
2023-02-12T09:36:43.523Z,8.47
2023-02-12T09:39:10.363Z,8.45
2023-02-12T09:42:07.882Z,8.52
2023-02-12T09:45:09.994Z,8.62
2023-02-12T09:47:45.032Z,8.72
2023-02-12T09:50:42.864Z,8.81
2023-02-12T09:53:16.988Z,8.88
2023-02-12T09:55:43.971Z,8.92
2023-02-12T09:58:22.160Z,8.92
2023-02-12T10:00:49.067Z,8.92
2023-02-12T10:03:18.402Z,8.96
2023-02-12T10:05:53.676Z,8.98
2023-02-12T10:08:47.249Z,8.98
2023-02-12T10:11:36.673Z,9.00
2023-02-12T10:14:15.437Z,9.08
2023-02-12T10:16:57.671Z,9.15
2023-02-12T10:20:01.358Z,9.23
2023-02-12T10:23:15.026Z,9.29
2023-02-12T10:25:54.510Z,9.36
2023-02-12T10:28:34.690Z,9.40
2023-02-12T10:31:06.490Z,9.44
2023-02-12T10:33:51.174Z,9.47
2023-02-12T10:36:43.587Z,9.50
2023-02-12T10:39:10.325Z,9.50
2023-02-12T10:41:47.411Z,9.52
2023-02-12T10:44:14.284Z,9.53
2023-02-12T10:46:41.280Z,9.55
2023-02-12T10:49:15.373Z,9.63
2023-02-12T10:52:09.220Z,9.64
2023-02-12T10:54:38.366Z,9.62
2023-02-12T10:57:13.182Z,9.65
2023-02-12T10:59:42.637Z,9.69
2023-02-12T11:02:29.531Z,9.71
2023-02-12T11:04:59.695Z,9.70
2023-02-12T11:07:28.713Z,9.77
2023-02-12T11:09:57.479Z,9.82
2023-02-12T11:12:42.494Z,9.83
2023-02-12T11:15:20.744Z,9.84
2023-02-12T11:18:19.657Z,9.86
2023-02-12T11:20:51.691Z,9.86
2023-02-12T11:23:50.950Z,9.87
2023-02-12T11:26:17.686Z,9.88
2023-02-12T11:29:17.185Z,9.87
2023-02-12T11:32:05.904Z,9.85
2023-02-12T11:34:32.852Z,9.87
2023-02-12T11:37:02.045Z,9.87
2023-02-12T11:39:30.398Z,9.85
2023-02-12T11:42:00.736Z,9.83
2023-02-12T11:44:35.220Z,9.79
2023-02-12T11:47:10.760Z,9.82
2023-02-12T11:50:22.103Z,9.81
2023-02-12T11:52:53.551Z,9.76
2023-02-12T11:55:26.164Z,9.76
2023-02-12T11:58:16.351Z,9.77
2023-02-12T12:00:43.125Z,9.81
2023-02-12T12:03:30.245Z,9.86
2023-02-12T12:06:13.117Z,9.92
2023-02-12T12:08:51.349Z,9.91
2023-02-12T12:11:27.042Z,9.92
2023-02-12T12:14:08.185Z,9.92
2023-02-12T12:17:06.445Z,9.91
2023-02-12T12:19:53.069Z,9.93
2023-02-12T12:22:27.668Z,9.90
2023-02-12T12:25:12.750Z,9.85
2023-02-12T12:28:03.600Z,9.82
2023-02-12T12:30:48.580Z,9.77
2023-02-12T12:33:55.477Z,9.80
2023-02-12T12:36:59.650Z,9.77
2023-02-12T12:40:07.420Z,9.72
2023-02-12T12:42:51.451Z,9.77
2023-02-12T12:45:53.580Z,9.75
2023-02-12T12:48:54.741Z,9.75
2023-02-12T12:51:44.251Z,9.73
2023-02-12T12:54:21.296Z,9.73
2023-02-12T12:57:11.584Z,9.75
2023-02-12T13:00:14.974Z,9.80
2023-02-12T13:03:25.594Z,9.82
2023-02-12T13:06:34.885Z,9.86
2023-02-12T13:09:16.903Z,9.89
2023-02-12T13:11:55.525Z,9.88
2023-02-12T13:14:47.399Z,9.85
2023-02-12T13:17:33.855Z,9.82
2023-02-12T13:20:12.377Z,9.82
2023-02-12T13:22:54.480Z,9.82
2023-02-12T13:25:34.566Z,9.83
2023-02-12T13:28:05.901Z,9.85
2023-02-12T13:30:48.391Z,9.85
2023-02-12T13:33:43.542Z,9.84
2023-02-12T13:36:14.618Z,9.83
2023-02-12T13:39:15.669Z,9.82
2023-02-12T13:41:58.012Z,9.80
2023-02-12T13:44:47.415Z,9.74
2023-02-12T13:47:32.445Z,9.69
2023-02-12T13:50:30.820Z,9.61
2023-02-12T13:53:16.940Z,9.58
2023-02-12T13:56:12.165Z,9.56
2023-02-12T13:58:40.287Z,9.57
2023-02-12T14:01:11.715Z,9.57
2023-02-12T14:03:39.651Z,9.56
2023-02-12T14:06:20.468Z,9.54
2023-02-12T14:08:54.501Z,9.54
2023-02-12T14:11:26.464Z,9.54
2023-02-12T14:14:01.484Z,9.57
2023-02-12T14:16:31.051Z,9.60
2023-02-12T14:19:39.865Z,9.60
2023-02-12T14:22:34.521Z,9.63
2023-02-12T14:25:26.084Z,9.67
2023-02-12T14:28:07.141Z,9.67
2023-02-12T14:30:41.147Z,9.64
2023-02-12T14:33:08.044Z,9.58
2023-02-12T14:35:41.851Z,9.56
2023-02-12T14:38:11.594Z,9.57
2023-02-12T14:40:45.371Z,9.58
2023-02-12T14:43:33.889Z,9.60
2023-02-12T14:46:39.420Z,9.56
2023-02-12T14:49:36.809Z,9.46
2023-02-12T14:52:17.108Z,9.39
2023-02-12T14:54:50.894Z,9.39
2023-02-12T14:57:29.088Z,9.33
2023-02-12T15:00:01.966Z,9.28
2023-02-12T15:02:34.889Z,9.24
2023-02-12T15:05:14.070Z,9.20
2023-02-12T15:07:47.257Z,9.21
2023-02-12T15:10:22.929Z,9.22
2023-02-12T15:13:23.510Z,9.25
2023-02-12T15:16:09.444Z,9.33
2023-02-12T15:19:01.431Z,9.34
2023-02-12T15:21:33.209Z,9.31
2023-02-12T15:24:23.249Z,9.22
2023-02-12T15:26:53.914Z,9.14
2023-02-12T15:29:29.970Z,9.10
2023-02-12T15:32:02.470Z,9.08
2023-02-12T15:34:35.435Z,9.03
2023-02-12T15:37:05.456Z,8.99
2023-02-12T15:39:44.118Z,8.93
2023-02-12T15:42:37.779Z,8.92
2023-02-12T15:45:10.585Z,8.90
2023-02-12T15:47:37.430Z,8.86
2023-02-12T15:50:04.692Z,8.78
2023-02-12T15:52:38.997Z,8.74
2023-02-12T15:55:16.298Z,8.69
2023-02-12T15:57:50.563Z,8.69
2023-02-12T16:00:35.805Z,8.63
2023-02-12T16:03:02.692Z,8.62
2023-02-12T16:05:31.746Z,8.62
2023-02-12T16:08:01.132Z,8.57
2023-02-12T16:10:28.188Z,8.53
2023-02-12T16:12:55.605Z,8.52
2023-02-12T16:15:34.875Z,8.52
2023-02-12T16:18:04.228Z,8.53
2023-02-12T16:20:32.311Z,8.51
2023-02-12T16:23:00.052Z,8.48
2023-02-12T16:25:33.588Z,8.47
2023-02-12T16:28:18.016Z,8.47
2023-02-12T16:30:48.382Z,8.47
2023-02-12T16:33:34.854Z,8.46
2023-02-12T16:36:15.215Z,8.43
2023-02-12T16:38:46.919Z,8.41
2023-02-12T16:41:26.129Z,8.43
2023-02-12T16:44:01.736Z,8.40
2023-02-12T16:46:45.857Z,8.38
2023-02-12T16:49:23.284Z,8.37
2023-02-12T16:51:52.283Z,8.36
2023-02-12T16:54:33.904Z,8.33
2023-02-12T16:57:02.142Z,8.29
2023-02-12T16:59:29.862Z,8.28
2023-02-12T17:02:03.963Z,8.26
2023-02-12T17:04:31.244Z,8.25
2023-02-12T17:06:58.190Z,8.27
2023-02-12T17:09:25.123Z,8.29
2023-02-12T17:11:51.921Z,8.29
2023-02-12T17:14:20.919Z,8.30
2023-02-12T17:16:49.042Z,8.33
2023-02-12T17:19:16.480Z,8.33
2023-02-12T17:21:49.350Z,8.32
2023-02-12T17:24:23.093Z,8.32
2023-02-12T17:26:51.565Z,8.30
2023-02-12T17:29:20.744Z,8.29
2023-02-12T17:31:48.152Z,8.27
2023-02-12T17:34:16.710Z,8.26
2023-02-12T17:36:43.623Z,8.24
2023-02-12T17:39:14.722Z,8.19
2023-02-12T17:41:44.090Z,8.16
2023-02-12T17:44:13.832Z,8.13
2023-02-12T17:46:41.222Z,8.14
2023-02-12T17:49:08.084Z,8.14
2023-02-12T17:51:34.965Z,8.13
2023-02-12T17:54:01.830Z,8.13
2023-02-12T17:56:28.845Z,8.10
2023-02-12T17:58:55.707Z,8.08
2023-02-12T18:01:24.143Z,8.08
2023-02-12T18:03:55.860Z,8.06
2023-02-12T18:06:29.388Z,8.05
2023-02-12T18:08:58.868Z,8.06
2023-02-12T18:11:27.674Z,8.05
2023-02-12T18:13:55.987Z,8.03
2023-02-12T18:16:32.786Z,8.02
2023-02-12T18:19:04.377Z,8.00
2023-02-12T18:21:31.721Z,7.98
2023-02-12T18:23:58.564Z,7.95
2023-02-12T18:26:25.403Z,7.92
2023-02-12T18:28:53.845Z,7.89
2023-02-12T18:31:21.108Z,7.90
2023-02-12T18:33:49.121Z,7.91
2023-02-12T18:36:19.860Z,7.89
2023-02-12T18:38:49.969Z,7.89
2023-02-12T18:41:26.746Z,7.87
2023-02-12T18:43:53.630Z,7.86
2023-02-12T18:46:25.945Z,7.87
2023-02-12T18:48:54.263Z,7.86
2023-02-12T18:51:28.571Z,7.85
2023-02-12T18:54:02.516Z,7.87
2023-02-12T18:56:33.252Z,7.87
2023-02-12T18:59:04.752Z,7.88
2023-02-12T19:01:33.093Z,7.88
2023-02-12T19:04:04.552Z,7.87
2023-02-12T19:06:37.682Z,7.87
2023-02-12T19:09:04.829Z,7.86
2023-02-12T19:11:32.777Z,7.85
2023-02-12T19:13:59.655Z,7.85
2023-02-12T19:16:27.341Z,7.84
2023-02-12T19:18:59.107Z,7.81
2023-02-12T19:21:26.410Z,7.79
2023-02-12T19:24:02.435Z,7.78
2023-02-12T19:26:31.146Z,7.77
2023-02-12T19:28:58.978Z,7.76
2023-02-12T19:31:33.316Z,7.77
2023-02-12T19:34:03.895Z,7.79
2023-02-12T19:36:35.356Z,7.77
2023-02-12T19:39:05.990Z,7.76
2023-02-12T19:41:41.010Z,7.76
2023-02-12T19:44:19.795Z,7.76
2023-02-12T19:46:48.033Z,7.73
2023-02-12T19:49:22.325Z,7.72
2023-02-12T19:51:49.629Z,7.70
2023-02-12T19:54:19.013Z,7.72
2023-02-12T19:56:46.528Z,7.70
2023-02-12T19:59:17.354Z,7.71
2023-02-12T20:01:48.150Z,7.69
2023-02-12T20:04:18.717Z,7.68
2023-02-12T20:06:46.326Z,7.68
2023-02-12T20:09:13.968Z,7.68
2023-02-12T20:11:41.409Z,7.68
2023-02-12T20:14:11.924Z,7.67
2023-02-12T20:16:41.725Z,7.68
2023-02-12T20:19:16.226Z,7.66
2023-02-12T20:21:44.703Z,7.66
2023-02-12T20:24:11.920Z,7.63
2023-02-12T20:26:39.141Z,7.61
2023-02-12T20:29:06.137Z,7.61
2023-02-12T20:31:37.106Z,7.62
2023-02-12T20:34:08.313Z,7.59
2023-02-12T20:36:38.737Z,7.56
2023-02-12T20:39:08.984Z,7.55
2023-02-12T20:41:37.237Z,7.55
2023-02-12T20:44:13.134Z,7.56
2023-02-12T20:46:42.213Z,7.54
2023-02-12T20:49:13.010Z,7.52
2023-02-12T20:51:40.368Z,7.49
2023-02-12T20:54:07.297Z,7.45
2023-02-12T20:56:36.092Z,7.43
2023-02-12T20:59:05.720Z,7.45
2023-02-12T21:01:36.816Z,7.44
2023-02-12T21:04:09.169Z,7.41
2023-02-12T21:06:39.312Z,7.41
2023-02-12T21:09:12.173Z,7.40
2023-02-12T21:11:42.159Z,7.39
2023-02-12T21:14:21.844Z,7.37
2023-02-12T21:16:51.120Z,7.34
2023-02-12T21:19:18.922Z,7.32
2023-02-12T21:21:46.264Z,7.32
2023-02-12T21:24:18.581Z,7.31
2023-02-12T21:26:45.306Z,7.31
2023-02-12T21:29:12.137Z,7.29
2023-02-12T21:31:43.637Z,7.28
2023-02-12T21:34:15.709Z,7.27
2023-02-12T21:36:45.533Z,7.26
2023-02-12T21:39:24.334Z,7.24
2023-02-12T21:42:02.772Z,7.25
2023-02-12T21:44:35.256Z,7.23
2023-02-12T21:47:02.298Z,7.21
2023-02-12T21:49:29.143Z,7.20
2023-02-12T21:52:02.973Z,7.20
2023-02-12T21:54:30.813Z,7.20
2023-02-12T21:56:59.562Z,7.20
2023-02-12T21:59:26.968Z,7.17
2023-02-12T22:01:58.290Z,7.14
2023-02-12T22:04:25.699Z,7.13
2023-02-12T22:06:52.894Z,7.12
2023-02-12T22:09:22.762Z,7.13
2023-02-12T22:11:51.975Z,7.12
2023-02-12T22:14:20.615Z,7.14
2023-02-12T22:16:48.009Z,7.15
2023-02-12T22:19:15.211Z,7.16
2023-02-12T22:21:44.332Z,7.17
2023-02-12T22:24:15.537Z,7.18
2023-02-12T22:26:43.360Z,7.19
2023-02-12T22:29:14.686Z,7.18
2023-02-12T22:31:43.515Z,7.18
2023-02-12T22:34:15.431Z,7.18
2023-02-12T22:36:46.542Z,7.16
2023-02-12T22:39:14.952Z,7.17
2023-02-12T22:41:42.596Z,7.16
2023-02-12T22:44:12.677Z,7.13
2023-02-12T22:46:40.935Z,7.13
2023-02-12T22:49:08.813Z,7.13
2023-02-12T22:51:36.967Z,7.13
2023-02-12T22:54:04.162Z,7.12
2023-02-12T22:56:31.043Z,7.12
2023-02-12T22:59:01.585Z,7.13
2023-02-12T23:01:29.869Z,7.11
2023-02-12T23:03:59.541Z,7.12
2023-02-12T23:06:30.868Z,7.11
2023-02-12T23:09:03.801Z,7.12
2023-02-12T23:11:33.204Z,7.11
2023-02-12T23:14:02.604Z,7.09
2023-02-12T23:16:29.677Z,7.08
2023-02-12T23:19:02.257Z,7.06
2023-02-12T23:21:32.322Z,7.05
2023-02-12T23:23:59.618Z,7.05
2023-02-12T23:26:28.367Z,7.05
2023-02-12T23:28:56.453Z,7.04
2023-02-12T23:31:24.196Z,7.03
2023-02-12T23:33:51.583Z,7.03
2023-02-12T23:36:18.451Z,7.03
2023-02-12T23:38:45.260Z,7.03
2023-02-12T23:41:12.340Z,7.04
2023-02-12T23:43:39.286Z,7.05
2023-02-12T23:46:06.300Z,7.05
2023-02-12T23:48:33.162Z,7.08
2023-02-12T23:51:00.226Z,7.08
2023-02-12T23:53:27.095Z,7.07
2023-02-12T23:55:53.986Z,7.07
2023-02-12T23:58:21.005Z,7.05
